sensor_id;sensor_type;location;lat;lon;timestamp;pressure;altitude;pressure_sealevel;temperature;humidity
11440;BME280;5776;51.814;4.510;2022-12-13T00:00:09;101296.78;;;2.84;98.02
11440;BME280;5776;51.814;4.510;2022-12-13T00:02:45;101295.94;;;2.83;98.59
11440;BME280;5776;51.814;4.510;2022-12-13T00:05:12;101292.22;;;2.84;98.67
11440;BME280;5776;51.814;4.510;2022-12-13T00:07:37;101284.38;;;2.83;98.70
11440;BME280;5776;51.814;4.510;2022-12-13T00:10:05;101289.75;;;2.83;98.32
11440;BME280;5776;51.814;4.510;2022-12-13T00:12:31;101283.78;;;2.80;98.45
11440;BME280;5776;51.814;4.510;2022-12-13T00:14:58;101285.44;;;2.81;98.28
11440;BME280;5776;51.814;4.510;2022-12-13T00:17:23;101289.16;;;2.80;97.72
11440;BME280;5776;51.814;4.510;2022-12-13T00:19:49;101290.00;;;2.81;97.75
11440;BME280;5776;51.814;4.510;2022-12-13T00:22:15;101285.44;;;2.81;98.11
11440;BME280;5776;51.814;4.510;2022-12-13T00:24:41;101279.69;;;2.78;97.88
11440;BME280;5776;51.814;4.510;2022-12-13T00:27:10;101281.56;;;2.77;98.30
11440;BME280;5776;51.814;4.510;2022-12-13T00:29:35;101280.53;;;2.78;97.77
11440;BME280;5776;51.814;4.510;2022-12-13T00:32:01;101282.63;;;2.76;98.02
11440;BME280;5776;51.814;4.510;2022-12-13T00:34:28;101276.44;;;2.76;98.15
11440;BME280;5776;51.814;4.510;2022-12-13T00:36:54;101281.81;;;2.76;97.88
11440;BME280;5776;51.814;4.510;2022-12-13T00:39:21;101271.28;;;2.74;98.38
11440;BME280;5776;51.814;4.510;2022-12-13T00:41:47;101267.19;;;2.72;98.51
11440;BME280;5776;51.814;4.510;2022-12-13T00:44:13;101266.59;;;2.70;98.38
11440;BME280;5776;51.814;4.510;2022-12-13T00:46:39;101263.69;;;2.71;98.44
11440;BME280;5776;51.814;4.510;2022-12-13T00:49:06;101259.38;;;2.70;97.71
11440;BME280;5776;51.814;4.510;2022-12-13T00:51:33;101260.41;;;2.69;97.70
11440;BME280;5776;51.814;4.510;2022-12-13T00:53:59;101249.69;;;2.69;98.43
11440;BME280;5776;51.814;4.510;2022-12-13T00:56:29;101258.75;;;2.68;98.10
11440;BME280;5776;51.814;4.510;2022-12-13T00:58:56;101259.59;;;2.69;98.23
11440;BME280;5776;51.814;4.510;2022-12-13T01:01:26;101256.53;;;2.65;97.92
11440;BME280;5776;51.814;4.510;2022-12-13T01:03:54;101252.84;;;2.66;98.04
11440;BME280;5776;51.814;4.510;2022-12-13T01:06:25;101253.84;;;2.65;97.58
11440;BME280;5776;51.814;4.510;2022-12-13T01:08:52;101243.13;;;2.65;98.13
11440;BME280;5776;51.814;4.510;2022-12-13T01:11:18;101251.16;;;2.65;97.46
11440;BME280;5776;51.814;4.510;2022-12-13T01:13:44;101246.25;;;2.62;97.76
11440;BME280;5776;51.814;4.510;2022-12-13T01:16:11;101244.41;;;2.63;97.79
11440;BME280;5776;51.814;4.510;2022-12-13T01:18:38;101243.38;;;2.64;98.27
11440;BME280;5776;51.814;4.510;2022-12-13T01:21:08;101244.41;;;2.63;98.30
11440;BME280;5776;51.814;4.510;2022-12-13T01:23:35;101239.84;;;2.63;97.89
11440;BME280;5776;51.814;4.510;2022-12-13T01:26:03;101242.38;;;2.58;97.91
11440;BME280;5776;51.814;4.510;2022-12-13T01:28:30;101242.38;;;2.58;97.60
11440;BME280;5776;51.814;4.510;2022-12-13T01:31:01;101241.34;;;2.59;97.98
11440;BME280;5776;51.814;4.510;2022-12-13T01:33:28;101242.38;;;2.58;98.03
11440;BME280;5776;51.814;4.510;2022-12-13T01:35:55;101239.69;;;2.58;97.76
11440;BME280;5776;51.814;4.510;2022-12-13T01:38:22;101243.66;;;2.55;97.52
11440;BME280;5776;51.814;4.510;2022-12-13T01:40:50;101242.84;;;2.55;97.85
11440;BME280;5776;51.814;4.510;2022-12-13T01:46:06;101246.34;;;2.55;98.00
11440;BME280;5776;51.814;4.510;2022-12-13T01:48:56;101244.09;;;2.52;97.87
11440;BME280;5776;51.814;4.510;2022-12-13T01:51:51;101242.47;;;2.51;98.06
11440;BME280;5776;51.814;4.510;2022-12-13T01:54:23;101240.81;;;2.50;97.65
11440;BME280;5776;51.814;4.510;2022-12-13T01:56:54;101237.13;;;2.51;97.75
11440;BME280;5776;51.814;4.510;2022-12-13T01:59:21;101230.94;;;2.51;97.49
11440;BME280;5776;51.814;4.510;2022-12-13T02:01:49;101233.63;;;2.51;97.20
11440;BME280;5776;51.814;4.510;2022-12-13T02:04:26;101230.94;;;2.51;97.96
11440;BME280;5776;51.814;4.510;2022-12-13T02:06:55;101234.06;;;2.48;97.74
11440;BME280;5776;51.814;4.510;2022-12-13T02:09:22;101229.75;;;2.47;97.52
11440;BME280;5776;51.814;4.510;2022-12-13T02:11:50;101230.56;;;2.47;97.85
11440;BME280;5776;51.814;4.510;2022-12-13T02:14:18;101224.38;;;2.47;97.53
11440;BME280;5776;51.814;4.510;2022-12-13T02:17:01;101221.91;;;2.45;97.70
11440;BME280;5776;51.814;4.510;2022-12-13T02:25:20;101227.53;;;2.44;97.48
11440;BME280;5776;51.814;4.510;2022-12-13T02:30:51;101212.47;;;2.43;97.52
11440;BME280;5776;51.814;4.510;2022-12-13T02:33:34;101208.38;;;2.40;97.22
11440;BME280;5776;51.814;4.510;2022-12-13T02:39:13;101206.75;;;2.39;97.95
11440;BME280;5776;51.814;4.510;2022-12-13T02:42:01;101213.38;;;2.36;97.84
11440;BME280;5776;51.814;4.510;2022-12-13T02:44:38;101209.63;;;2.37;98.05
11440;BME280;5776;51.814;4.510;2022-12-13T02:47:13;101204.28;;;2.37;97.11
11440;BME280;5776;51.814;4.510;2022-12-13T02:49:44;101213.38;;;2.36;97.46
11440;BME280;5776;51.814;4.510;2022-12-13T02:52:13;101206.34;;;2.35;97.33
11440;BME280;5776;51.814;4.510;2022-12-13T02:54:41;101205.53;;;2.35;97.28
11440;BME280;5776;51.814;4.510;2022-12-13T02:57:36;101201.84;;;2.36;97.25
11440;BME280;5776;51.814;4.510;2022-12-13T03:00:12;101208.47;;;2.33;97.16
11440;BME280;5776;51.814;4.510;2022-12-13T03:08:35;101212.16;;;2.32;97.02
11440;BME280;5776;51.814;4.510;2022-12-13T03:18:34;101210.16;;;2.28;97.27
11440;BME280;5776;51.814;4.510;2022-12-13T03:21:03;101214.69;;;2.27;97.17
11440;BME280;5776;51.814;4.510;2022-12-13T03:23:29;101207.72;;;2.26;97.38
11440;BME280;5776;51.814;4.510;2022-12-13T03:26:00;101205.84;;;2.27;97.25
11440;BME280;5776;51.814;4.510;2022-12-13T03:28:27;101209.59;;;2.26;97.04
11440;BME280;5776;51.814;4.510;2022-12-13T03:30:53;101214.09;;;2.25;96.77
11440;BME280;5776;51.814;4.510;2022-12-13T03:33:19;101212.25;;;2.26;97.45
11440;BME280;5776;51.814;4.510;2022-12-13T03:35:46;101212.25;;;2.26;97.07
11440;BME280;5776;51.814;4.510;2022-12-13T03:38:13;101220.50;;;2.24;96.96
11440;BME280;5776;51.814;4.510;2022-12-13T03:40:40;101211.66;;;2.24;97.31
11440;BME280;5776;51.814;4.510;2022-12-13T03:43:06;101208.97;;;2.24;97.30
11440;BME280;5776;51.814;4.510;2022-12-13T03:45:32;101210.25;;;2.21;97.31
11440;BME280;5776;51.814;4.510;2022-12-13T03:47:58;101208.59;;;2.20;97.24
11440;BME280;5776;51.814;4.510;2022-12-13T03:50:24;101211.06;;;2.22;96.86
11440;BME280;5776;51.814;4.510;2022-12-13T03:52:49;101205.09;;;2.20;96.85
11440;BME280;5776;51.814;4.510;2022-12-13T03:55:17;101211.28;;;2.20;97.03
11440;BME280;5776;51.814;4.510;2022-12-13T03:57:43;101218.50;;;2.20;97.19
11440;BME280;5776;51.814;4.510;2022-12-13T04:00:10;101218.50;;;2.20;96.97
11440;BME280;5776;51.814;4.510;2022-12-13T04:02:36;101206.97;;;2.19;96.93
11440;BME280;5776;51.814;4.510;2022-12-13T04:05:02;101213.59;;;2.16;96.98
11440;BME280;5776;51.814;4.510;2022-12-13T04:07:28;101219.75;;;2.17;96.89
11440;BME280;5776;51.814;4.510;2022-12-13T04:09:54;101217.28;;;2.15;97.06
11440;BME280;5776;51.814;4.510;2022-12-13T04:12:19;101221.03;;;2.14;96.67
11440;BME280;5776;51.814;4.510;2022-12-13T04:15:05;101213.19;;;2.13;97.45
11440;BME280;5776;51.814;4.510;2022-12-13T04:17:31;101204.94;;;2.14;96.40
11440;BME280;5776;51.814;4.510;2022-12-13T04:19:57;101204.59;;;2.11;96.86
11440;BME280;5776;51.814;4.510;2022-12-13T04:22:23;101197.38;;;2.11;96.93
11440;BME280;5776;51.814;4.510;2022-12-13T04:24:48;101204.59;;;2.11;96.95
11440;BME280;5776;51.814;4.510;2022-12-13T04:27:14;101207.47;;;2.09;97.20
11440;BME280;5776;51.814;4.510;2022-12-13T04:29:40;101198.38;;;2.10;96.61
11440;BME280;5776;51.814;4.510;2022-12-13T04:32:06;101193.47;;;2.07;96.41
11440;BME280;5776;51.814;4.510;2022-12-13T04:34:32;101194.53;;;2.06;96.61
11440;BME280;5776;51.814;4.510;2022-12-13T04:36:58;101190.19;;;2.05;96.72
11440;BME280;5776;51.814;4.510;2022-12-13T04:39:24;101193.28;;;2.09;97.05
11440;BME280;5776;51.814;4.510;2022-12-13T04:41:51;101189.94;;;2.13;97.18
11440;BME280;5776;51.814;4.510;2022-12-13T04:44:17;101186.03;;;2.09;96.87
11440;BME280;5776;51.814;4.510;2022-12-13T04:46:44;101177.19;;;2.09;97.25
11440;BME280;5776;51.814;4.510;2022-12-13T04:49:10;101175.31;;;2.09;97.65
11440;BME280;5776;51.814;4.510;2022-12-13T04:51:36;101170.78;;;2.10;97.27
11440;BME280;5776;51.814;4.510;2022-12-13T04:54:01;101173.00;;;2.13;97.85
11440;BME280;5776;51.814;4.510;2022-12-13T04:56:27;101164.59;;;2.09;97.97
11440;BME280;5776;51.814;4.510;2022-12-13T04:58:53;101165.06;;;2.06;97.67
11440;BME280;5776;51.814;4.510;2022-12-13T05:01:19;101169.00;;;2.04;98.35
11440;BME280;5776;51.814;4.510;2022-12-13T05:03:45;101179.94;;;2.02;97.27
11440;BME280;5776;51.814;4.510;2022-12-13T05:06:13;101172.50;;;2.04;97.91
11440;BME280;5776;51.814;4.510;2022-12-13T05:08:39;101177.03;;;2.04;96.84
11440;BME280;5776;51.814;4.510;2022-12-13T05:11:06;101182.84;;;2.01;96.84
11440;BME280;5776;51.814;4.510;2022-12-13T05:13:33;101182.59;;;2.02;97.09
11440;BME280;5776;51.814;4.510;2022-12-13T05:16:04;101189.84;;;2.02;96.70
11440;BME280;5776;51.814;4.510;2022-12-13T05:18:32;101186.09;;;2.03;96.93
11440;BME280;5776;51.814;4.510;2022-12-13T05:21:03;101185.28;;;2.02;96.86
11440;BME280;5776;51.814;4.510;2022-12-13T05:23:30;101180.75;;;2.03;96.77
11440;BME280;5776;51.814;4.510;2022-12-13T05:25:57;101186.34;;;2.01;96.89
11440;BME280;5776;51.814;4.510;2022-12-13T05:28:23;101180.97;;;2.01;96.90
11440;BME280;5776;51.814;4.510;2022-12-13T05:30:52;101177.50;;;2.01;97.03
11440;BME280;5776;51.814;4.510;2022-12-13T05:33:17;101182.00;;;2.00;97.07
11440;BME280;5776;51.814;4.510;2022-12-13T05:35:43;101179.56;;;1.99;96.53
11440;BME280;5776;51.814;4.510;2022-12-13T05:38:09;101186.56;;;2.00;96.66
11440;BME280;5776;51.814;4.510;2022-12-13T05:40:35;101182.84;;;2.01;96.89
11440;BME280;5776;51.814;4.510;2022-12-13T05:43:01;101185.09;;;2.04;96.52
11440;BME280;5776;51.814;4.510;2022-12-13T05:45:31;101182.00;;;2.00;96.18
11440;BME280;5776;51.814;4.510;2022-12-13T05:47:57;101171.75;;;1.97;97.17
11440;BME280;5776;51.814;4.510;2022-12-13T05:50:23;101172.56;;;1.98;97.29
11440;BME280;5776;51.814;4.510;2022-12-13T05:52:50;101162.44;;;2.00;97.27
11440;BME280;5776;51.814;4.510;2022-12-13T05:55:16;101167.19;;;1.98;96.98
11440;BME280;5776;51.814;4.510;2022-12-13T05:57:42;101161.03;;;1.97;96.92
11440;BME280;5776;51.814;4.510;2022-12-13T06:00:09;101159.16;;;1.98;96.86
11440;BME280;5776;51.814;4.510;2022-12-13T06:02:37;101159.16;;;1.98;97.08
11440;BME280;5776;51.814;4.510;2022-12-13T06:05:03;101152.19;;;1.97;96.76
11440;BME280;5776;51.814;4.510;2022-12-13T06:07:29;101159.41;;;1.96;96.52
11440;BME280;5776;51.814;4.510;2022-12-13T06:09:55;101159.16;;;1.98;96.80
11440;BME280;5776;51.814;4.510;2022-12-13T06:12:21;101159.97;;;1.98;96.79
11440;BME280;5776;51.814;4.510;2022-12-13T06:14:47;101162.09;;;1.96;96.99
11440;BME280;5776;51.814;4.510;2022-12-13T06:17:13;101169.88;;;1.98;97.02
11440;BME280;5776;51.814;4.510;2022-12-13T06:19:39;101170.69;;;1.98;96.85
11440;BME280;5776;51.814;4.510;2022-12-13T06:22:05;101177.91;;;1.98;97.29
11440;BME280;5776;51.814;4.510;2022-12-13T06:24:30;101168.47;;;1.95;96.64
11440;BME280;5776;51.814;4.510;2022-12-13T06:26:56;101168.25;;;1.97;97.24
11440;BME280;5776;51.814;4.510;2022-12-13T06:29:22;101173.38;;;1.98;96.99
11440;BME280;5776;51.814;4.510;2022-12-13T06:31:59;101170.13;;;1.96;97.12
11440;BME280;5776;51.814;4.510;2022-12-13T06:34:25;101168.47;;;1.95;97.24
11440;BME280;5776;51.814;4.510;2022-12-13T06:36:52;101169.72;;;1.92;97.06
11440;BME280;5776;51.814;4.510;2022-12-13T06:39:18;101177.31;;;1.95;97.07
11440;BME280;5776;51.814;4.510;2022-12-13T06:41:43;101174.63;;;1.95;96.45
11440;BME280;5776;51.814;4.510;2022-12-13T06:44:10;101164.97;;;1.94;96.78
11440;BME280;5776;51.814;4.510;2022-12-13T06:46:35;101163.91;;;1.95;97.07
11440;BME280;5776;51.814;4.510;2022-12-13T06:49:01;101169.28;;;1.95;97.01
11440;BME280;5776;51.814;4.510;2022-12-13T06:51:27;101172.78;;;1.96;96.69
11440;BME280;5776;51.814;4.510;2022-12-13T06:53:53;101161.47;;;1.94;96.85
11440;BME280;5776;51.814;4.510;2022-12-13T06:56:19;101161.69;;;1.92;96.38
11440;BME280;5776;51.814;4.510;2022-12-13T06:58:44;101166.84;;;1.94;96.85
11440;BME280;5776;51.814;4.510;2022-12-13T07:01:15;101165.56;;;1.97;97.64
11440;BME280;5776;51.814;4.510;2022-12-13T07:03:42;101158.13;;;1.99;96.71
11440;BME280;5776;51.814;4.510;2022-12-13T07:06:15;101164.75;;;1.96;97.36
11440;BME280;5776;51.814;4.510;2022-12-13T07:08:43;101158.34;;;1.97;97.10
11440;BME280;5776;51.814;4.510;2022-12-13T07:11:13;101163.91;;;1.95;96.94
11440;BME280;5776;51.814;4.510;2022-12-13T07:13:40;101170.31;;;1.94;96.96
11440;BME280;5776;51.814;4.510;2022-12-13T07:16:08;101170.31;;;1.94;96.77
11440;BME280;5776;51.814;4.510;2022-12-13T07:18:34;101174.22;;;1.99;98.07
11440;BME280;5776;51.814;4.510;2022-12-13T07:21:03;101168.84;;;1.99;97.71
11440;BME280;5776;51.814;4.510;2022-12-13T07:23:29;101166.38;;;1.97;96.95
11440;BME280;5776;51.814;4.510;2022-12-13T07:25:55;101169.28;;;1.95;96.90
11440;BME280;5776;51.814;4.510;2022-12-13T07:28:21;101166.38;;;1.97;96.88
11440;BME280;5776;51.814;4.510;2022-12-13T07:30:48;101173.63;;;1.97;97.08
11440;BME280;5776;51.814;4.510;2022-12-13T07:33:14;101175.03;;;1.99;97.10
11440;BME280;5776;51.814;4.510;2022-12-13T07:35:40;101173.16;;;2.00;97.15
11440;BME280;5776;51.814;4.510;2022-12-13T07:38:07;101169.88;;;1.98;97.07
11440;BME280;5776;51.814;4.510;2022-12-13T07:40:35;101170.94;;;1.97;97.13
11440;BME280;5776;51.814;4.510;2022-12-13T07:43:01;101167.19;;;1.98;97.51
11440;BME280;5776;51.814;4.510;2022-12-13T07:45:27;101168.47;;;1.95;97.37
11440;BME280;5776;51.814;4.510;2022-12-13T07:47:53;101166.53;;;1.84;97.65
11440;BME280;5776;51.814;4.510;2022-12-13T07:50:20;101172.78;;;1.52;93.71
11440;BME280;5776;51.814;4.510;2022-12-13T07:52:47;101165.06;;;1.63;97.50
11440;BME280;5776;51.814;4.510;2022-12-13T07:55:13;101176.50;;;1.77;97.16
11440;BME280;5776;51.814;4.510;2022-12-13T07:57:40;101180.13;;;1.82;96.98
11440;BME280;5776;51.814;4.510;2022-12-13T08:00:06;101188.78;;;1.84;96.39
11440;BME280;5776;51.814;4.510;2022-12-13T08:02:32;101193.06;;;1.85;97.02
11440;BME280;5776;51.814;4.510;2022-12-13T08:04:58;101194.75;;;1.86;96.76
11440;BME280;5776;51.814;4.510;2022-12-13T08:07:23;101195.75;;;1.85;96.37
11440;BME280;5776;51.814;4.510;2022-12-13T08:09:49;101189.97;;;1.88;97.02
11440;BME280;5776;51.814;4.510;2022-12-13T08:12:15;101189.13;;;1.88;96.56
11440;BME280;5776;51.814;4.510;2022-12-13T08:14:41;101191.59;;;1.89;96.83
11440;BME280;5776;51.814;4.510;2022-12-13T08:17:07;101197.31;;;1.93;97.40
11440;BME280;5776;51.814;4.510;2022-12-13T08:19:33;101193.84;;;1.92;97.69
11440;BME280;5776;51.814;4.510;2022-12-13T08:21:59;101200.25;;;1.91;96.89
11440;BME280;5776;51.814;4.510;2022-12-13T08:24:26;101206.41;;;1.92;97.15
11440;BME280;5776;51.814;4.510;2022-12-13T08:26:53;101205.00;;;1.89;97.42
11440;BME280;5776;51.814;4.510;2022-12-13T08:29:19;101205.00;;;1.89;96.63
11440;BME280;5776;51.814;4.510;2022-12-13T08:31:45;101214.09;;;1.88;97.63
11440;BME280;5776;51.814;4.510;2022-12-13T08:34:11;101215.13;;;1.87;97.23
11440;BME280;5776;51.814;4.510;2022-12-13T08:36:37;101228.06;;;1.90;97.54
11440;BME280;5776;51.814;4.510;2022-12-13T08:39:02;101230.38;;;0.67;89.50
11440;BME280;5776;51.814;4.510;2022-12-13T08:41:29;101219.91;;;-0.13;90.94
11440;BME280;5776;51.814;4.510;2022-12-13T08:43:55;101223.88;;;0.49;92.93
11440;BME280;5776;51.814;4.510;2022-12-13T08:46:21;101218.59;;;1.13;95.26
11440;BME280;5776;51.814;4.510;2022-12-13T08:48:47;101219.84;;;1.42;95.18
11440;BME280;5776;51.814;4.510;2022-12-13T08:51:13;101213.78;;;1.53;95.25
11440;BME280;5776;51.814;4.510;2022-12-13T08:53:40;101215.94;;;1.63;95.75
11440;BME280;5776;51.814;4.510;2022-12-13T08:56:09;101216.34;;;1.66;95.87
11440;BME280;5776;51.814;4.510;2022-12-13T08:58:36;101208.91;;;1.68;96.33
11440;BME280;5776;51.814;4.510;2022-12-13T09:01:06;101212.16;;;1.70;95.94
11440;BME280;5776;51.814;4.510;2022-12-13T09:03:35;101213.59;;;1.73;96.77
11440;BME280;5776;51.814;4.510;2022-12-13T09:06:08;101219.78;;;1.73;96.69
11440;BME280;5776;51.814;4.510;2022-12-13T09:08:36;101220.59;;;1.74;96.44
11440;BME280;5776;51.814;4.510;2022-12-13T09:11:03;101218.53;;;1.76;96.10
11440;BME280;5776;51.814;4.510;2022-12-13T09:13:31;101223.06;;;1.76;97.26
11440;BME280;5776;51.814;4.510;2022-12-13T09:16:01;101213.78;;;1.78;96.73
11440;BME280;5776;51.814;4.510;2022-12-13T09:18:27;101212.94;;;1.78;96.80
11440;BME280;5776;51.814;4.510;2022-12-13T09:20:53;101216.81;;;1.82;96.91
11440;BME280;5776;51.814;4.510;2022-12-13T09:23:19;101210.66;;;1.81;96.77
11440;BME280;5776;51.814;4.510;2022-12-13T09:25:54;101211.66;;;1.80;96.86
11440;BME280;5776;51.814;4.510;2022-12-13T09:28:20;101219.72;;;1.80;97.37
11440;BME280;5776;51.814;4.510;2022-12-13T09:30:46;101220.56;;;1.81;97.14
11440;BME280;5776;51.814;4.510;2022-12-13T09:33:12;101216.81;;;1.82;97.38
11440;BME280;5776;51.814;4.510;2022-12-13T09:35:37;101216.63;;;1.83;97.33
11440;BME280;5776;51.814;4.510;2022-12-13T09:38:03;101222.78;;;1.84;97.58
11440;BME280;5776;51.814;4.510;2022-12-13T09:40:30;101218.84;;;1.86;97.83
11440;BME280;5776;51.814;4.510;2022-12-13T09:42:57;101213.50;;;1.86;97.61
11440;BME280;5776;51.814;4.510;2022-12-13T09:45:24;101211.84;;;1.85;97.59
11440;BME280;5776;51.814;4.510;2022-12-13T09:47:50;101201.28;;;1.90;98.07
11440;BME280;5776;51.814;4.510;2022-12-13T09:50:27;101200.25;;;1.91;97.80
11440;BME280;5776;51.814;4.510;2022-12-13T09:52:53;101203.94;;;1.90;97.87
11440;BME280;5776;51.814;4.510;2022-12-13T09:55:42;101201.88;;;1.92;97.66
11440;BME280;5776;51.814;4.510;2022-12-13T09:58:22;101194.06;;;1.91;97.37
11440;BME280;5776;51.814;4.510;2022-12-13T10:00:51;101198.59;;;1.90;97.88
11440;BME280;5776;51.814;4.510;2022-12-13T10:03:19;101204.56;;;1.92;98.00
11440;BME280;5776;51.814;4.510;2022-12-13T10:05:57;101197.56;;;1.91;98.21
11440;BME280;5776;51.814;4.510;2022-12-13T10:08:56;101195.25;;;1.95;98.09
11440;BME280;5776;51.814;4.510;2022-12-13T10:11:23;101185.81;;;1.92;98.08
11440;BME280;5776;51.814;4.510;2022-12-13T10:14:00;101191.16;;;1.92;98.26
11440;BME280;5776;51.814;4.510;2022-12-13T10:19:25;101184.53;;;1.95;98.19
11440;BME280;5776;51.814;4.510;2022-12-13T10:21:54;101182.00;;;2.00;98.40
11440;BME280;5776;51.814;4.510;2022-12-13T10:24:23;101173.38;;;1.98;98.36
11440;BME280;5776;51.814;4.510;2022-12-13T10:26:53;101175.84;;;2.00;98.08
11440;BME280;5776;51.814;4.510;2022-12-13T10:29:19;101179.34;;;2.00;98.63
11440;BME280;5776;51.814;4.510;2022-12-13T10:31:48;101177.25;;;2.02;98.75
11440;BME280;5776;51.814;4.510;2022-12-13T10:36:45;101151.34;;;2.14;99.64
11440;BME280;5776;51.814;4.510;2022-12-13T10:39:17;101162.38;;;2.25;98.82
11440;BME280;5776;51.814;4.510;2022-12-13T10:41:43;101158.28;;;2.22;98.64
11440;BME280;5776;51.814;4.510;2022-12-13T10:44:21;101147.88;;;2.14;99.01
11440;BME280;5776;51.814;4.510;2022-12-13T10:49:21;101144.78;;;2.10;99.06
11440;BME280;5776;51.814;4.510;2022-12-13T10:51:48;101148.06;;;2.12;98.93
11440;BME280;5776;51.814;4.510;2022-12-13T10:54:25;101144.59;;;2.12;99.13
11440;BME280;5776;51.814;4.510;2022-12-13T10:56:52;101132.00;;;2.12;98.81
11440;BME280;5776;51.814;4.510;2022-12-13T10:59:26;101134.69;;;2.12;99.10
11440;BME280;5776;51.814;4.510;2022-12-13T11:01:55;101125.50;;;2.20;99.64
11440;BME280;5776;51.814;4.510;2022-12-13T11:06:54;101113.91;;;2.26;99.60
11440;BME280;5776;51.814;4.510;2022-12-13T11:09:31;101114.56;;;2.22;99.73
11440;BME280;5776;51.814;4.510;2022-12-13T11:12:03;101108.41;;;2.21;99.92
11440;BME280;5776;51.814;4.510;2022-12-13T11:14:39;101122.84;;;2.20;99.19
11440;BME280;5776;51.814;4.510;2022-12-13T11:17:16;101115.59;;;2.21;99.48
11440;BME280;5776;51.814;4.510;2022-12-13T11:19:48;101120.75;;;2.22;99.78
11440;BME280;5776;51.814;4.510;2022-12-13T11:22:29;101119.13;;;2.21;99.50
11440;BME280;5776;51.814;4.510;2022-12-13T11:25:03;101106.88;;;2.25;99.21
11440;BME280;5776;51.814;4.510;2022-12-13T11:27:55;101102.41;;;2.37;100.00
11440;BME280;5776;51.814;4.510;2022-12-13T11:30:54;101088.31;;;2.42;100.00
11440;BME280;5776;51.814;4.510;2022-12-13T11:39:11;101085.97;;;2.34;99.94
11440;BME280;5776;51.814;4.510;2022-12-13T11:41:49;101086.78;;;2.34;99.92
11440;BME280;5776;51.814;4.510;2022-12-13T11:44:38;101088.84;;;2.32;100.00
11440;BME280;5776;51.814;4.510;2022-12-13T11:47:13;101083.28;;;2.34;100.00
11440;BME280;5776;51.814;4.510;2022-12-13T11:49:43;101082.00;;;2.36;100.00
11440;BME280;5776;51.814;4.510;2022-12-13T11:55:00;101057.50;;;2.33;100.00
11440;BME280;5776;51.814;4.510;2022-12-13T11:57:41;101057.88;;;2.36;100.00
11440;BME280;5776;51.814;4.510;2022-12-13T12:00:32;101065.13;;;2.36;99.91
11440;BME280;5776;51.814;4.510;2022-12-13T12:03:38;101062.66;;;2.34;100.00
11440;BME280;5776;51.814;4.510;2022-12-13T12:06:14;101071.91;;;2.50;100.00
11440;BME280;5776;51.814;4.510;2022-12-13T12:09:00;101070.63;;;2.41;98.31
11440;BME280;5776;51.814;4.510;2022-12-13T12:11:41;101066.69;;;2.25;100.00
11440;BME280;5776;51.814;4.510;2022-12-13T12:14:13;101060.19;;;2.33;100.00
11440;BME280;5776;51.814;4.510;2022-12-13T12:19:53;101056.22;;;2.35;100.00
11440;BME280;5776;51.814;4.510;2022-12-13T12:22:57;101058.69;;;2.37;99.90
11440;BME280;5776;51.814;4.510;2022-12-13T12:28:17;101070.22;;;2.37;99.84
11440;BME280;5776;51.814;4.510;2022-12-13T12:30:57;101072.91;;;2.37;100.00
11440;BME280;5776;51.814;4.510;2022-12-13T12:33:33;101078.88;;;2.40;100.00
11440;BME280;5776;51.814;4.510;2022-12-13T12:47:41;101063.97;;;2.44;100.00
11440;BME280;5776;51.814;4.510;2022-12-13T12:50:21;101066.06;;;2.42;100.00
11440;BME280;5776;51.814;4.510;2022-12-13T12:53:25;101065.81;;;2.43;100.00
11440;BME280;5776;51.814;4.510;2022-12-13T12:58:33;101061.50;;;2.42;100.00
11440;BME280;5776;51.814;4.510;2022-12-13T13:01:20;101063.97;;;2.44;100.00
11440;BME280;5776;51.814;4.510;2022-12-13T13:03:51;101055.94;;;2.44;100.00
11440;BME280;5776;51.814;4.510;2022-12-13T13:06:27;101047.06;;;2.43;100.00
11440;BME280;5776;51.814;4.510;2022-12-13T13:09:03;101042.75;;;2.42;100.00
11440;BME280;5776;51.814;4.510;2022-12-13T13:11:33;101038.78;;;2.45;100.00
11440;BME280;5776;51.814;4.510;2022-12-13T13:16:46;101046.84;;;2.45;100.00
11440;BME280;5776;51.814;4.510;2022-12-13T13:21:49;101030.53;;;2.46;100.00
11440;BME280;5776;51.814;4.510;2022-12-13T13:24:37;101026.78;;;2.47;100.00
11440;BME280;5776;51.814;4.510;2022-12-13T13:29:38;101023.28;;;2.47;99.96
11440;BME280;5776;51.814;4.510;2022-12-13T13:32:19;101019.69;;;2.53;100.00
11440;BME280;5776;51.814;4.510;2022-12-13T13:34:49;101013.50;;;2.52;100.00
11440;BME280;5776;51.814;4.510;2022-12-13T13:39:54;100999.50;;;2.50;100.00
11440;BME280;5776;51.814;4.510;2022-12-13T13:42:25;100996.03;;;2.50;100.00
11440;BME280;5776;51.814;4.510;2022-12-13T13:44:54;100997.06;;;2.49;100.00
11440;BME280;5776;51.814;4.510;2022-12-13T14:10:01;100985.09;;;2.75;100.00
11440;BME280;5776;51.814;4.510;2022-12-13T14:21:06;100983.44;;;2.62;100.00
11440;BME280;5776;51.814;4.510;2022-12-13T14:29:19;100988.13;;;2.67;100.00
11440;BME280;5776;51.814;4.510;2022-12-13T14:31:48;100982.75;;;2.67;100.00
11440;BME280;5776;51.814;4.510;2022-12-13T14:34:26;100974.13;;;2.65;100.00
11440;BME280;5776;51.814;4.510;2022-12-13T14:37:04;100959.91;;;2.64;100.00
11440;BME280;5776;51.814;4.510;2022-12-13T14:39:32;100962.59;;;2.64;100.00
11440;BME280;5776;51.814;4.510;2022-12-13T14:42:13;100961.78;;;2.64;100.00
11440;BME280;5776;51.814;4.510;2022-12-13T14:44:45;100963.41;;;2.65;100.00
11440;BME280;5776;51.814;4.510;2022-12-13T14:47:11;100954.28;;;2.66;100.00
11440;BME280;5776;51.814;4.510;2022-12-13T14:49:40;100966.66;;;2.67;100.00
11440;BME280;5776;51.814;4.510;2022-12-13T14:52:13;100962.13;;;2.67;100.00
11440;BME280;5776;51.814;4.510;2022-12-13T14:54:46;100964.00;;;2.67;100.00
11440;BME280;5776;51.814;4.510;2022-12-13T14:57:19;100961.31;;;2.67;100.00
11440;BME280;5776;51.814;4.510;2022-12-13T14:59:51;100949.50;;;2.68;100.00
11440;BME280;5776;51.814;4.510;2022-12-13T15:02:31;100945.81;;;2.69;100.00
11440;BME280;5776;51.814;4.510;2022-12-13T15:05:04;100940.66;;;2.67;100.00
11440;BME280;5776;51.814;4.510;2022-12-13T15:07:40;100932.63;;;2.67;100.00
11440;BME280;5776;51.814;4.510;2022-12-13T15:10:17;100932.63;;;2.67;100.00
11440;BME280;5776;51.814;4.510;2022-12-13T15:12:45;100927.47;;;2.66;100.00
11440;BME280;5776;51.814;4.510;2022-12-13T15:20:39;100924.78;;;2.66;100.00
11440;BME280;5776;51.814;4.510;2022-12-13T15:26:01;100921.88;;;2.67;100.00